Time;durP1;ratioP1;P1;durP2;ratioP2;P2;SDS_P1;SDS_P2;PMS_P1;PMS_P2;Temp;Humidity;BMP_temperature;BMP_pressure;BME280_temperature;BME280_humidity;BME280_pressure;Samples;Min_cycle;Max_cycle;Signal;HPM_P1;HPM_P2
2022/07/03 00:00:21;;;;;;;5.43;0.98;;;;;;;15.47;100.00;100807.69;6124386;23;20002;-83
2022/07/03 00:02:46;;;;;;;4.85;0.73;;;;;;;15.43;100.00;100816.03;6125040;23;20361;-83
2022/07/03 00:05:12;;;;;;;4.70;0.80;;;;;;;15.50;100.00;100813.69;6123777;23;20081;-83
2022/07/03 00:07:38;;;;;;;11.13;1.02;;;;;;;15.39;100.00;100812.78;6123473;23;20042;-83
2022/07/03 00:10:04;;;;;;;8.30;1.17;;;;;;;15.27;100.00;100814.63;6123839;23;20002;-83
2022/07/03 00:12:30;;;;;;;6.93;0.90;;;;;;;15.33;100.00;100810.63;6124356;23;20370;-83
2022/07/03 00:14:55;;;;;;;3.70;0.73;;;;;;;15.52;100.00;100817.06;6124322;23;20079;-83
2022/07/03 00:17:21;;;;;;;3.60;0.77;;;;;;;15.47;100.00;100820.94;6124448;23;20049;-83
2022/07/03 00:19:46;;;;;;;1.98;0.77;;;;;;;15.49;100.00;100826.09;6123640;23;20088;-83
2022/07/03 00:22:13;;;;;;;6.72;1.00;;;;;;;15.55;100.00;100827.41;6123117;23;20010;-83
2022/07/03 00:24:50;;;;;;;4.70;1.30;;;;;;;15.72;100.00;100829.50;6124426;23;20029;-83
2022/07/03 00:27:16;;;;;;;3.97;1.02;;;;;;;15.74;100.00;100821.44;6124410;23;20012;-83
2022/07/03 00:29:43;;;;;;;1.88;0.77;;;;;;;15.89;100.00;100824.63;6124497;23;20010;-83
2022/07/03 00:32:10;;;;;;;9.18;1.58;;;;;;;15.99;100.00;100820.25;6124541;23;20002;-83
2022/07/03 00:34:38;;;;;;;6.53;1.10;;;;;;;16.11;100.00;100824.50;6122002;23;20009;-83
2022/07/03 00:37:06;;;;;;;7.03;1.10;;;;;;;16.14;100.00;100824.25;6124545;23;20006;-83
2022/07/03 00:39:34;;;;;;;3.80;0.88;;;;;;;16.14;100.00;100815.47;6124478;23;20016;-83
2022/07/03 00:42:02;;;;;;;10.95;0.80;;;;;;;16.33;100.00;100818.22;6124459;23;20002;-83
2022/07/03 00:44:32;;;;;;;8.05;0.70;;;;;;;16.12;100.00;100809.47;6124798;23;20002;-83
2022/07/03 00:46:59;;;;;;;2.58;0.77;;;;;;;16.33;100.00;100807.63;6124345;23;19998;-83
2022/07/03 00:49:25;;;;;;;6.80;1.15;;;;;;;16.38;100.00;100809.88;6146970;23;20016;-83
2022/07/03 00:51:52;;;;;;;3.75;1.13;;;;;;;16.37;100.00;100802.88;6123288;23;20112;-83
2022/07/03 00:54:21;;;;;;;1.52;0.60;;;;;;;16.54;100.00;100804.91;6124204;23;20022;-83
2022/07/03 00:56:50;;;;;;;6.60;0.70;;;;;;;16.59;100.00;100804.53;6122835;23;20013;-83
2022/07/03 00:59:16;;;;;;;1.77;0.60;;;;;;;16.57;100.00;100803.84;6124535;23;20433;-83
2022/07/03 01:01:43;;;;;;;2.85;1.00;;;;;;;16.61;100.00;100805.25;6124463;23;20028;-83
2022/07/03 01:04:33;;;;;;;3.53;0.85;;;;;;;16.57;100.00;100803.84;6124379;23;20014;-83
2022/07/03 01:07:02;;;;;;;5.85;1.10;;;;;;;16.34;100.00;100798.69;6124447;23;20009;-83
2022/07/03 01:09:54;;;;;;;2.70;0.70;;;;;;;16.28;100.00;100803.69;6123981;23;20012;-83
2022/07/03 01:12:43;;;;;;;3.47;0.90;;;;;;;16.39;100.00;100806.25;6123666;23;20038;-83
2022/07/03 01:15:41;;;;;;;7.53;1.00;;;;;;;16.49;100.00;100809.81;6093407;23;20052;-83
2022/07/03 01:18:12;;;;;;;9.98;1.27;;;;;;;16.55;100.00;100811.91;6122194;23;20358;-83
2022/07/03 01:20:40;;;;;;;4.20;0.98;;;;;;;16.48;100.00;100809.94;6122761;23;20017;-83
2022/07/03 01:23:19;;;;;;;8.57;1.10;;;;;;;16.45;100.00;100806.56;6122309;23;20089;-83
2022/07/03 01:25:47;;;;;;;9.27;1.55;;;;;;;16.43;100.00;100808.50;6124016;23;19998;-83
2022/07/03 01:28:15;;;;;;;5.13;1.02;;;;;;;16.44;100.00;100796.09;6124055;23;20444;-83
2022/07/03 01:30:52;;;;;;;4.72;0.80;;;;;;;16.09;100.00;100802.59;6124257;23;20504;-83
2022/07/03 01:33:26;;;;;;;6.63;0.90;;;;;;;15.91;100.00;100806.81;6123816;23;20009;-83
2022/07/03 01:36:00;;;;;;;5.40;1.40;;;;;;;15.81;100.00;100807.56;6123905;23;20012;-83
2022/07/03 01:38:28;;;;;;;12.50;2.25;;;;;;;16.06;100.00;100811.66;6124243;23;20010;-83
2022/07/03 01:40:55;;;;;;;8.10;0.95;;;;;;;16.13;100.00;100809.31;6124215;23;20025;-83
2022/07/03 01:43:26;;;;;;;4.63;0.93;;;;;;;16.26;100.00;100814.41;6123894;23;20008;-83
2022/07/03 01:45:54;;;;;;;3.72;1.35;;;;;;;16.25;100.00;100813.59;6124075;23;20002;-83
2022/07/03 01:48:22;;;;;;;5.60;0.95;;;;;;;16.22;100.00;100808.53;6122526;23;20022;-81
2022/07/03 01:50:49;;;;;;;9.30;1.10;;;;;;;16.33;100.00;100807.63;6124550;23;20017;-82
2022/07/03 01:53:16;;;;;;;7.47;0.80;;;;;;;16.40;100.00;100807.94;6124257;23;20325;-83
2022/07/03 01:55:43;;;;;;;3.15;1.20;;;;;;;16.40;100.00;100813.22;6124147;23;19998;-83
2022/07/03 01:58:09;;;;;;;4.25;0.88;;;;;;;16.43;100.00;100815.63;6123871;23;20016;-83
2022/07/03 02:01:03;;;;;;;9.00;1.05;;;;;;;16.60;100.00;100807.03;6123787;23;20500;-83
2022/07/03 02:03:34;;;;;;;3.20;0.82;;;;;;;16.20;100.00;100807.81;6123483;23;20077;-82
2022/07/03 02:06:02;;;;;;;7.97;1.40;;;;;;;16.15;100.00;100803.88;6124400;23;20034;-83
2022/07/03 02:08:31;;;;;;;7.95;1.10;;;;;;;16.15;100.00;100807.41;6124133;23;20006;-83
2022/07/03 02:10:56;;;;;;;8.35;0.93;;;;;;;16.18;100.00;100815.06;6122463;23;20045;-83
2022/07/03 02:13:23;;;;;;;4.32;0.90;;;;;;;16.23;100.00;100812.00;6123646;23;19998;-83
2022/07/03 02:15:51;;;;;;;6.40;1.50;;;;;;;16.26;100.00;100804.66;6123891;23;20413;-82
2022/07/03 02:18:35;;;;;;;2.92;0.70;;;;;;;16.33;100.00;100806.78;6124372;23;20005;-82
2022/07/03 02:21:19;;;;;;;5.15;1.15;;;;;;;16.32;100.00;100803.28;6123896;23;20013;-81
2022/07/03 02:24:12;;;;;;;5.70;1.17;;;;;;;16.38;100.00;100801.94;6123855;23;20028;-83
2022/07/03 02:26:40;;;;;;;5.85;1.10;;;;;;;16.29;100.00;100800.06;6125649;23;20298;-83
2022/07/03 02:29:09;;;;;;;6.50;0.98;;;;;;;16.12;100.00;100802.34;6125865;23;20010;-83
2022/07/03 02:31:58;;;;;;;5.53;0.88;;;;;;;16.31;100.00;100796.31;6125985;23;20006;-83
2022/07/03 02:34:25;;;;;;;5.68;1.15;;;;;;;16.29;100.00;100805.34;6125924;23;19998;-83
2022/07/03 02:36:55;;;;;;;6.22;1.30;;;;;;;16.28;100.00;100795.75;6125705;23;20017;-83
2022/07/03 02:39:29;;;;;;;5.75;1.00;;;;;;;16.41;100.00;100806.94;6124248;23;20441;-83
2022/07/03 02:42:02;;;;;;;7.45;1.42;;;;;;;16.37;100.00;100801.09;6123952;23;20324;-83
2022/07/03 02:44:46;;;;;;;4.90;1.08;;;;;;;16.48;100.00;100805.47;6125868;23;20336;-83
2022/07/03 02:47:23;;;;;;;5.15;1.13;;;;;;;16.48;100.00;100800.16;6125884;23;20002;-83
2022/07/03 02:50:11;;;;;;;6.03;1.10;;;;;;;16.39;100.00;100801.81;6123885;23;20014;-83
2022/07/03 02:52:42;;;;;;;6.65;0.98;;;;;;;16.70;100.00;100811.53;6125856;23;20018;-83
2022/07/03 02:55:21;;;;;;;6.17;1.30;;;;;;;16.83;100.00;100807.72;6125880;23;20029;-83
2022/07/03 02:58:03;;;;;;;5.55;1.10;;;;;;;16.85;100.00;100815.53;6126160;23;20311;-83
2022/07/03 03:00:34;;;;;;;3.85;0.90;;;;;;;16.86;100.00;100814.56;6124471;23;20006;-83
2022/07/03 03:03:01;;;;;;;3.25;1.08;;;;;;;16.84;100.00;100813.84;6125313;23;20052;-83
2022/07/03 03:06:02;;;;;;;4.88;1.30;;;;;;;16.93;100.00;100814.88;6125403;23;20009;-83
2022/07/03 03:08:43;;;;;;;4.32;1.02;;;;;;;16.82;100.00;100813.16;6117721;23;20010;-83
2022/07/03 03:11:22;;;;;;;4.33;1.63;;;;;;;16.82;100.00;100815.78;6123789;23;20061;-83
2022/07/03 03:13:50;;;;;;;5.78;1.30;;;;;;;16.77;100.00;100810.88;6124861;23;20440;-83
2022/07/03 03:16:16;;;;;;;3.15;0.82;;;;;;;16.81;100.00;100822.91;6125192;23;20009;-83
2022/07/03 03:18:41;;;;;;;7.35;1.27;;;;;;;16.62;100.00;100818.34;6125403;23;20032;-83
2022/07/03 03:21:15;;;;;;;8.20;1.20;;;;;;;16.89;100.00;100814.28;6125416;23;20426;-83
2022/07/03 03:23:49;;;;;;;5.15;1.20;;;;;;;16.87;100.00;100807.47;6123656;23;20010;-83
2022/07/03 03:26:18;;;;;;;4.85;1.67;;;;;;;16.80;100.00;100823.84;6125282;23;20422;-82
2022/07/03 03:28:43;;;;;;;3.72;1.02;;;;;;;16.84;100.00;100817.38;6125116;23;20425;-82
2022/07/03 03:31:09;;;;;;;4.68;1.20;;;;;;;16.92;100.00;100823.78;6123694;23;20013;-81
2022/07/03 03:33:43;;;;;;;3.17;0.90;;;;;;;17.04;100.00;100814.72;6125231;23;20006;-82
2022/07/03 03:36:10;;;;;;;7.47;1.63;;;;;;;16.96;100.00;100820.75;6124848;23;20425;-83
2022/07/03 03:38:36;;;;;;;4.32;1.20;;;;;;;16.93;100.00;100817.53;6124803;23;20009;-83
2022/07/03 03:41:03;;;;;;;6.20;1.40;;;;;;;16.98;100.00;100818.78;6125037;23;20013;-82
2022/07/03 03:43:29;;;;;;;2.92;1.15;;;;;;;17.02;100.00;100816.69;6124987;23;20227;-83
2022/07/03 03:45:54;;;;;;;5.82;1.38;;;;;;;17.09;100.00;100817.81;6124975;23;20052;-83
2022/07/03 03:48:19;;;;;;;4.07;1.10;;;;;;;17.00;100.00;100810.69;6124734;23;20020;-84
2022/07/03 03:50:45;;;;;;;5.03;1.00;;;;;;;17.07;100.00;100816.28;6125044;23;20089;-82
2022/07/03 03:53:12;;;;;;;8.95;1.20;;;;;;;17.10;100.00;100816.88;6124822;23;20006;-83
2022/07/03 03:55:37;;;;;;;6.68;1.77;;;;;;;17.12;100.00;100824.66;6124775;23;20045;-82
2022/07/03 03:58:04;;;;;;;4.40;1.10;;;;;;;16.99;100.00;100815.16;6124798;23;20460;-82
2022/07/03 04:00:30;;;;;;;5.93;1.27;;;;;;;17.00;100.00;100811.53;6124931;23;20332;-83
2022/07/03 04:02:55;;;;;;;2.70;0.80;;;;;;;17.11;100.00;100817.69;6124927;23;20013;-83
2022/07/03 04:05:21;;;;;;;8.70;1.38;;;;;;;17.15;100.00;100814.63;6125199;23;20437;-82
2022/07/03 04:07:46;;;;;;;7.05;0.90;;;;;;;17.20;100.00;100811.56;6124574;23;20355;-82
2022/07/03 04:10:12;;;;;;;3.30;1.13;;;;;;;16.99;100.00;100811.66;6124933;23;20503;-83
2022/07/03 04:12:37;;;;;;;6.95;1.45;;;;;;;17.18;100.00;100817.03;6124852;23;20433;-83
2022/07/03 04:15:03;;;;;;;5.22;0.80;;;;;;;17.27;100.00;100809.22;6124859;23;20510;-83
2022/07/03 04:17:29;;;;;;;2.70;0.77;;;;;;;17.22;100.00;100815.78;6125184;23;20006;-83
2022/07/03 04:19:54;;;;;;;2.75;0.60;;;;;;;17.30;100.00;100822.19;6124874;23;20137;-83
2022/07/03 04:22:20;;;;;;;2.45;1.00;;;;;;;17.35;100.00;100814.66;6124600;23;20130;-81
2022/07/03 04:24:45;;;;;;;5.57;0.85;;;;;;;17.42;100.00;100816.63;6124505;23;20005;-83
2022/07/03 04:27:10;;;;;;;2.28;0.80;;;;;;;17.50;100.00;100812.44;6125378;23;20352;-83
2022/07/03 04:29:36;;;;;;;3.67;1.15;;;;;;;17.57;100.00;100813.53;6124514;23;20481;-83
2022/07/03 04:32:01;;;;;;;2.08;0.63;;;;;;;17.53;100.00;100812.97;6124694;23;20461;-83
2022/07/03 04:34:26;;;;;;;5.38;0.60;;;;;;;17.60;100.00;100816.75;6124963;23;20009;-83
2022/07/03 04:36:53;;;;;;;5.68;0.85;;;;;;;17.69;100.00;100812.41;6124597;23;20034;-83
2022/07/03 04:39:18;;;;;;;4.40;1.48;;;;;;;17.75;100.00;100819.84;6122894;23;20057;-83
2022/07/03 04:41:43;;;;;;;7.22;1.15;;;;;;;17.79;100.00;100823.03;6124516;23;20033;-83
2022/07/03 04:44:08;;;;;;;4.32;0.95;;;;;;;17.83;100.00;100816.47;6124697;23;20135;-83
2022/07/03 04:46:35;;;;;;;3.08;1.00;;;;;;;17.89;100.00;100815.09;6124733;23;19997;-83
2022/07/03 04:49:00;;;;;;;4.40;0.80;;;;;;;17.83;100.00;100814.69;6124343;23;20341;-83
2022/07/03 04:51:25;;;;;;;5.65;0.90;;;;;;;17.89;100.00;100817.75;6123997;23;20085;-83
2022/07/03 04:53:51;;;;;;;4.50;0.85;;;;;;;17.94;100.00;100820.84;6124135;23;20445;-83
2022/07/03 04:56:16;;;;;;;4.95;1.05;;;;;;;17.82;100.00;100820.94;6124280;23;20002;-83
2022/07/03 04:58:41;;;;;;;9.90;1.27;;;;;;;17.87;100.00;100812.59;6124521;23;20005;-83
2022/07/03 05:01:07;;;;;;;2.95;0.98;;;;;;;18.02;100.00;100828.94;6124692;23;20426;-83
2022/07/03 05:03:32;;;;;;;5.32;0.93;;;;;;;18.00;100.00;100825.56;6124430;23;20006;-83
2022/07/03 05:05:58;;;;;;;6.68;1.10;;;;;;;18.00;100.00;100833.53;6123844;23;20044;-83
2022/07/03 05:08:23;;;;;;;6.13;1.42;;;;;;;17.96;100.00;100830.31;6124302;23;20010;-83
2022/07/03 05:10:49;;;;;;;5.95;1.10;;;;;;;17.99;100.00;100831.84;6147463;23;20694;-83
2022/07/03 05:13:14;;;;;;;8.63;1.08;;;;;;;17.94;100.00;100837.59;6124148;23;20012;-83
2022/07/03 05:15:39;;;;;;;6.00;1.27;;;;;;;18.11;100.00;100828.09;6122890;23;20006;-83
2022/07/03 05:18:05;;;;;;;3.42;1.35;;;;;;;18.15;100.00;100837.44;6147307;23;20013;-83
2022/07/03 05:20:30;;;;;;;4.75;0.80;;;;;;;18.18;100.00;100834.47;6124326;23;20002;-83
2022/07/03 05:22:57;;;;;;;12.02;1.60;;;;;;;18.23;100.00;100837.56;6124387;23;19998;-83
2022/07/03 05:25:23;;;;;;;2.58;1.00;;;;;;;18.23;100.00;100842.03;6124058;23;20006;-83
2022/07/03 05:27:50;;;;;;;3.63;0.75;;;;;;;18.40;100.00;100843.09;6124070;23;20006;-83
2022/07/03 05:30:16;;;;;;;4.47;0.93;;;;;;;18.39;100.00;100852.06;6124327;23;20002;-82
2022/07/03 05:32:41;;;;;;;3.60;0.82;;;;;;;18.43;100.00;100848.97;6124258;23;20457;-83
2022/07/03 05:35:07;;;;;;;4.80;0.90;;;;;;;18.51;100.00;100850.91;6124124;23;20425;-83
2022/07/03 05:37:33;;;;;;;6.47;1.05;;;;;;;18.53;100.00;100853.44;6123874;23;20009;-82
2022/07/03 05:39:58;;;;;;;4.10;0.98;;;;;;;18.59;100.00;100856.34;6123854;23;20016;-82
2022/07/03 05:42:23;;;;;;;5.28;1.33;;;;;;;18.71;100.00;100856.16;6123985;23;20298;-83
2022/07/03 05:44:49;;;;;;;4.03;0.98;;;;;;;18.87;100.00;100848.41;6124239;23;20012;-83
2022/07/03 05:47:14;;;;;;;5.18;0.95;;;;;;;19.05;100.00;100853.78;6124507;23;19998;-82
2022/07/03 05:49:39;;;;;;;1.58;0.68;;;;;;;19.14;100.00;100846.75;6123644;23;20037;-82
2022/07/03 05:52:05;;;;;;;3.38;0.85;;;;;;;19.30;100.00;100851.41;6124311;23;20065;-82
2022/07/03 05:54:30;;;;;;;2.47;0.85;;;;;;;19.01;100.00;100847.91;6123943;23;20024;-83
2022/07/03 05:56:56;;;;;;;4.60;0.88;;;;;;;19.33;100.00;100845.78;6123879;23;20014;-82
2022/07/03 05:59:21;;;;;;;4.90;1.17;;;;;;;19.49;100.00;100850.41;6125177;23;20068;-84
2022/07/03 06:01:46;;;;;;;2.95;1.02;;;;;;;19.37;100.00;100853.31;6126195;23;19998;-83
2022/07/03 06:04:12;;;;;;;4.57;0.90;;;;;;;19.42;100.00;100844.88;6126609;23;20014;-83
2022/07/03 06:06:37;;;;;;;9.63;1.73;;;;;;;19.45;100.00;100854.38;6126041;23;20017;-83
2022/07/03 06:09:03;;;;;;;3.45;0.63;;;;;;;19.45;100.00;100851.72;6125717;23;20037;-83
2022/07/03 06:11:28;;;;;;;4.60;1.08;;;;;;;19.33;100.00;100851.94;6126006;23;20425;-84
2022/07/03 06:13:54;;;;;;;6.32;1.13;;;;;;;19.14;100.00;100846.75;6126336;23;20002;-83
2022/07/03 06:16:19;;;;;;;4.32;0.90;;;;;;;19.19;100.00;100844.47;6122313;23;20124;-83
2022/07/03 06:18:44;;;;;;;3.35;0.75;;;;;;;19.20;100.00;100851.47;6125904;23;20039;-83
2022/07/03 06:21:10;;;;;;;7.25;1.00;;;;;;;18.85;100.00;100846.91;6125779;23;19998;-83
2022/07/03 06:23:35;;;;;;;6.78;0.90;;;;;;;19.04;100.00;100846.81;6125320;23;20006;-83
2022/07/03 06:26:01;;;;;;;3.47;0.80;;;;;;;19.02;100.00;100860.25;6125513;23;20002;-83
2022/07/03 06:28:26;;;;;;;5.32;1.13;;;;;;;19.09;100.00;100849.00;6125368;23;20028;-83
2022/07/03 06:30:52;;;;;;;4.22;1.25;;;;;;;19.21;100.00;100854.00;6122945;23;20006;-83
2022/07/03 06:33:17;;;;;;;5.45;1.13;;;;;;;19.34;100.00;100858.94;6125572;23;20076;-83
2022/07/03 06:35:43;;;;;;;2.85;0.65;;;;;;;19.61;100.00;100859.88;6125536;23;20002;-83
2022/07/03 06:38:09;;;;;;;7.63;1.17;;;;;;;19.80;100.00;100865.06;6125377;23;20088;-83
2022/07/03 06:40:34;;;;;;;4.63;1.02;;;;;;;19.80;100.00;100865.06;6123998;23;19998;-83
2022/07/03 06:42:59;;;;;;;4.30;1.05;;;;;;;20.06;100.00;100868.78;6123830;23;20006;-83
2022/07/03 06:45:24;;;;;;;2.72;0.90;;;;;;;20.24;99.75;100871.41;6123353;23;20422;-82
2022/07/03 06:47:50;;;;;;;5.88;1.42;;;;;;;20.47;98.13;100869.88;6125779;23;20002;-83
2022/07/03 06:50:15;;;;;;;3.67;0.73;;;;;;;20.56;95.73;100871.63;6125409;23;20483;-83
2022/07/03 06:52:40;;;;;;;3.08;0.70;;;;;;;20.56;96.73;100868.94;6124859;23;19998;-83
2022/07/03 06:55:06;;;;;;;5.35;0.70;;;;;;;20.70;95.07;100869.41;6125641;23;20010;-83
2022/07/03 06:57:32;;;;;;;2.78;0.77;;;;;;;20.73;95.14;100874.41;6125516;23;20006;-83
2022/07/03 06:59:57;;;;;;;3.17;1.20;;;;;;;20.43;97.05;100879.19;6148228;23;20009;-83
2022/07/03 07:02:22;;;;;;;4.47;1.25;;;;;;;20.78;95.70;100874.78;6125134;23;20006;-83
2022/07/03 07:04:48;;;;;;;2.42;0.70;;;;;;;20.94;95.04;100880.16;6148489;23;20369;-83
2022/07/03 07:07:13;;;;;;;3.72;0.93;;;;;;;21.16;93.35;100878.75;6124805;23;20042;-83
2022/07/03 07:09:39;;;;;;;5.28;1.17;;;;;;;21.84;90.66;100876.91;6124378;23;20018;-83
2022/07/03 07:12:05;;;;;;;3.80;0.90;;;;;;;22.61;86.48;100881.88;6124684;23;20037;-83
2022/07/03 07:14:30;;;;;;;4.38;0.52;;;;;;;23.55;78.77;100881.97;6125292;23;20001;-83
2022/07/03 07:16:55;;;;;;;2.30;0.77;;;;;;;23.51;78.29;100878.78;6124209;23;20006;-83
2022/07/03 07:19:21;;;;;;;5.25;1.35;;;;;;;23.31;77.34;100881.09;6125018;23;20010;-84
2022/07/03 07:21:46;;;;;;;5.28;0.95;;;;;;;23.31;76.73;100874.91;6123350;23;20006;-83
2022/07/03 07:24:12;;;;;;;4.95;1.00;;;;;;;23.26;76.01;100875.47;6124425;23;20005;-82
2022/07/03 07:26:37;;;;;;;2.97;0.73;;;;;;;22.91;77.99;100887.47;6124887;23;20193;-82
2022/07/03 07:29:02;;;;;;;4.05;1.08;;;;;;;22.58;80.44;100891.06;6125083;23;20016;-82
2022/07/03 07:31:28;;;;;;;2.35;0.75;;;;;;;22.77;80.29;100883.69;6124283;23;20057;-83
2022/07/03 07:33:53;;;;;;;4.20;0.50;;;;;;;22.96;78.64;100885.09;6125143;23;20006;-83
2022/07/03 07:36:18;;;;;;;5.60;0.85;;;;;;;22.77;79.05;100889.03;6124490;23;20002;-82
2022/07/03 07:38:44;;;;;;;4.78;1.05;;;;;;;22.76;78.84;100884.66;6124906;23;20006;-82
2022/07/03 07:41:09;;;;;;;2.80;0.90;;;;;;;22.82;78.74;100892.00;6124869;23;20081;-83
2022/07/03 07:43:35;;;;;;;6.00;1.58;;;;;;;22.61;80.09;100899.75;6125199;23;20417;-82
2022/07/03 07:46:00;;;;;;;9.80;1.65;;;;;;;22.81;78.96;100895.72;6124121;23;20010;-82
2022/07/03 07:48:25;;;;;;;6.60;1.75;;;;;;;22.65;81.41;100896.59;6124940;23;20026;-82
2022/07/03 07:50:51;;;;;;;8.27;1.70;;;;;;;23.00;81.08;100897.13;6124692;23;20006;-83
2022/07/03 07:53:17;;;;;;;7.63;1.40;;;;;;;23.80;76.09;100900.59;6125115;23;20012;-84
2022/07/03 07:55:42;;;;;;;7.55;1.25;;;;;;;26.57;64.42;100893.69;6124747;23;20032;-84
2022/07/03 07:58:08;;;;;;;7.70;1.52;;;;;;;27.34;57.76;100889.94;6124990;23;20437;-84
2022/07/03 08:00:33;;;;;;;2.85;0.82;;;;;;;26.51;60.39;100890.72;6124376;23;20029;-84
2022/07/03 08:05:43;;;;;;;8.00;1.52;;;;;;;27.27;56.09;100900.72;6123599;23;20017;-84
2022/07/03 08:08:14;;;;;;;6.80;1.25;;;;;;;26.24;56.94;100894.25;6122655;23;20018;-83
2022/07/03 08:10:46;;;;;;;7.03;1.25;;;;;;;26.50;57.89;100899.84;6124406;23;20470;-83
2022/07/03 08:13:13;;;;;;;4.13;1.05;;;;;;;27.41;54.49;100900.72;6124417;23;20009;-83
2022/07/03 08:15:39;;;;;;;7.70;1.48;;;;;;;27.59;53.46;100905.56;6124915;23;20006;-84
2022/07/03 08:18:05;;;;;;;5.40;1.10;;;;;;;30.70;46.68;100892.84;6125083;23;20042;-84
2022/07/03 08:20:31;;;;;;;4.78;1.38;;;;;;;33.58;39.21;100898.66;6124439;23;20006;-84
2022/07/03 08:22:57;;;;;;;6.63;1.77;;;;;;;35.91;35.10;100894.06;6124256;23;20467;-85
2022/07/03 08:25:23;;;;;;;3.17;0.73;;;;;;;37.58;31.35;100893.47;6123570;23;20006;-85
2022/07/03 08:27:48;;;;;;;2.88;0.73;;;;;;;39.38;28.65;100893.78;6124621;23;20006;-85
2022/07/03 08:30:17;;;;;;;2.75;0.70;;;;;;;39.18;27.77;100889.25;6123599;23;20006;-85
2022/07/03 08:32:45;;;;;;;2.45;0.80;;;;;;;37.50;28.42;100894.81;6124834;23;20002;-85
2022/07/03 08:35:12;;;;;;;7.25;1.40;;;;;;;34.79;31.49;100892.88;6125003;23;20060;-85
2022/07/03 08:37:40;;;;;;;5.80;1.10;;;;;;;33.30;34.10;100901.41;6125132;23;20061;-85
2022/07/03 08:40:09;;;;;;;6.07;1.40;;;;;;;32.62;36.25;100903.81;6147999;23;20017;-84
2022/07/03 08:42:37;;;;;;;4.88;1.15;;;;;;;35.24;32.70;100894.53;6123279;23;19998;-85
2022/07/03 08:45:02;;;;;;;6.50;1.10;;;;;;;36.48;31.17;100897.19;6124400;23;20006;-84
2022/07/03 08:47:31;;;;;;;4.90;1.40;;;;;;;36.62;30.63;100892.88;6125665;23;20424;-85
2022/07/03 08:50:00;;;;;;;6.22;1.30;;;;;;;37.27;28.71;100892.59;6125081;23;20016;-85
2022/07/03 08:52:26;;;;;;;5.50;1.42;;;;;;;38.72;27.13;100894.94;6125127;23;20008;-84
2022/07/03 08:54:51;;;;;;;4.13;0.77;;;;;;;40.08;25.16;100887.16;6124673;23;20080;-84
2022/07/03 08:57:18;;;;;;;3.58;1.05;;;;;;;40.58;24.79;100884.97;6124416;23;20006;-84
2022/07/03 08:59:50;;;;;;;2.47;0.90;;;;;;;42.07;24.10;100876.41;6123735;23;20425;-84
2022/07/03 09:02:17;;;;;;;6.28;1.35;;;;;;;41.63;24.62;100880.47;6123632;23;20010;-84
2022/07/03 09:04:43;;;;;;;7.50;1.10;;;;;;;39.02;26.20;100880.28;6123681;23;20073;-83
2022/07/03 09:07:09;;;;;;;3.33;0.93;;;;;;;36.52;29.15;100893.66;6123516;23;20022;-84
2022/07/03 09:09:36;;;;;;;6.05;1.33;;;;;;;34.20;32.03;100883.34;6123668;23;20010;-83
2022/07/03 09:12:01;;;;;;;3.88;1.60;;;;;;;32.50;35.40;100884.75;6124382;23;20002;-83
2022/07/03 09:14:27;;;;;;;4.85;1.50;;;;;;;32.59;36.45;100882.56;6125256;23;20082;-83
2022/07/03 09:16:52;;;;;;;4.18;1.50;;;;;;;35.12;32.37;100875.53;6124973;23;20025;-84
2022/07/03 09:19:46;;;;;;;6.88;1.20;;;;;;;36.14;30.11;100871.00;6123614;23;20013;-83
2022/07/03 09:22:28;;;;;;;4.65;1.02;;;;;;;38.25;27.83;100869.59;6123111;23;20325;-83
2022/07/03 09:25:03;;;;;;;3.15;0.82;;;;;;;38.27;27.69;100866.53;6123445;23;20089;-83
2022/07/03 09:27:29;;;;;;;3.60;0.90;;;;;;;35.85;29.88;100872.44;6123212;23;20041;-83
2022/07/03 09:30:00;;;;;;;3.90;1.00;;;;;;;34.91;30.67;100869.03;6121741;23;20360;-84
2022/07/03 09:32:32;;;;;;;4.88;1.10;;;;;;;33.25;33.13;100891.22;6123473;23;20448;-84
2022/07/03 09:35:20;;;;;;;3.88;0.80;;;;;;;31.52;36.80;100888.94;6123317;23;20053;-83
2022/07/03 09:37:50;;;;;;;3.38;0.88;;;;;;;30.68;38.70;100894.94;6123308;23;20009;-83
2022/07/03 09:40:16;;;;;;;5.15;1.55;;;;;;;28.99;41.88;100897.38;6123693;23;20009;-82
2022/07/03 09:42:56;;;;;;;4.07;1.10;;;;;;;29.07;42.18;100902.56;6123169;23;20009;-82
2022/07/03 09:45:22;;;;;;;3.78;0.90;;;;;;;27.54;46.80;100900.75;6123655;23;20010;-82
2022/07/03 09:47:47;;;;;;;4.72;1.27;;;;;;;27.28;48.10;100909.63;6123202;23;20010;-82
2022/07/03 09:50:13;;;;;;;5.32;1.20;;;;;;;26.97;48.20;100910.91;6123112;23;20018;-82
2022/07/03 09:52:45;;;;;;;4.25;0.98;;;;;;;25.39;55.15;100922.81;6123738;23;20002;-83
2022/07/03 09:55:10;;;;;;;4.38;1.00;;;;;;;23.82;64.43;100933.44;6122898;23;20425;-83
2022/07/03 09:57:56;;;;;;;5.70;1.02;;;;;;;24.62;63.30;100934.78;6122909;23;20013;-82
2022/07/03 10:00:21;;;;;;;4.90;1.10;;;;;;;24.45;63.70;100932.22;6117124;23;20041;-84
2022/07/03 10:03:00;;;;;;;6.18;1.00;;;;;;;23.86;66.62;100924.03;6123154;23;20013;-83
2022/07/03 10:05:27;;;;;;;4.75;0.80;;;;;;;23.38;69.21;100937.53;6122940;23;20002;-83
2022/07/03 10:08:04;;;;;;;6.28;0.90;;;;;;;22.87;75.30;100943.22;6120398;23;20010;-83
2022/07/03 10:10:32;;;;;;;4.45;1.25;;;;;;;22.80;75.22;100936.84;6123188;23;20089;-82
2022/07/03 10:12:59;;;;;;;6.35;0.90;;;;;;;23.29;75.00;100934.03;6121897;23;20002;-84
2022/07/03 10:15:26;;;;;;;3.92;1.00;;;;;;;23.33;73.67;100932.66;6123899;23;20006;-82
2022/07/03 10:17:54;;;;;;;2.75;0.65;;;;;;;23.62;71.15;100930.31;6123458;23;20477;-83
2022/07/03 10:20:24;;;;;;;5.40;0.90;;;;;;;23.54;71.62;100940.09;6124197;23;20069;-83
2022/07/03 10:22:50;;;;;;;4.68;1.20;;;;;;;23.54;71.20;100934.75;6146691;23;20416;-83
2022/07/03 10:25:17;;;;;;;3.95;1.00;;;;;;;23.41;72.65;100936.31;6122111;23;20002;-83
2022/07/03 10:27:45;;;;;;;11.77;2.05;;;;;;;24.09;71.49;100940.94;6123724;23;20002;-83
2022/07/03 10:30:11;;;;;;;5.13;1.88;;;;;;;25.09;66.65;100944.31;6123449;23;20339;-82
2022/07/03 10:32:39;;;;;;;4.95;1.08;;;;;;;25.63;62.73;100940.44;6123886;23;20009;-83
2022/07/03 10:35:05;;;;;;;3.70;1.00;;;;;;;26.30;60.33;100940.09;6123704;23;20306;-83
2022/07/03 10:37:41;;;;;;;3.85;1.02;;;;;;;26.75;57.40;100941.69;6123810;23;20422;-83
2022/07/03 10:46:15;;;;;;;4.22;0.90;;;;;;;29.69;47.33;100945.34;6125362;23;20053;-83
2022/07/03 10:49:00;;;;;;;5.53;1.05;;;;;;;30.87;43.11;100950.00;6125518;23;20006;-83
2022/07/03 10:51:27;;;;;;;6.53;1.20;;;;;;;29.38;45.16;100944.25;6125410;23;20037;-82
2022/07/03 10:54:21;;;;;;;3.20;0.68;;;;;;;29.76;46.48;100946.13;6125113;23;20009;-83
2022/07/03 10:56:59;;;;;;;4.53;1.20;;;;;;;29.38;46.46;100942.34;6124165;23;20013;-83
2022/07/03 10:59:45;;;;;;;4.60;1.35;;;;;;;29.69;45.48;100942.63;6125628;23;20077;-83
2022/07/03 11:02:16;;;;;;;5.45;1.05;;;;;;;29.77;43.56;100937.81;6124867;23;20089;-83
2022/07/03 11:05:03;;;;;;;3.05;0.80;;;;;;;29.37;45.42;100954.25;6126230;23;20002;-84
2022/07/03 11:07:38;;;;;;;9.90;1.05;;;;;;;27.84;48.71;100962.47;6125459;23;20088;-83
2022/07/03 11:10:10;;;;;;;7.57;1.52;;;;;;;26.31;54.82;100967.84;6125482;23;20014;-83
2022/07/03 11:12:57;;;;;;;3.60;0.75;;;;;;;26.47;56.73;100964.03;6125585;23;20025;-83
2022/07/03 11:15:32;;;;;;;5.10;1.63;;;;;;;24.65;67.34;100964.78;6126032;23;20002;-83
2022/07/03 11:18:18;;;;;;;3.65;1.30;;;;;;;24.20;71.08;100965.66;6125418;23;20065;-83
2022/07/03 11:20:43;;;;;;;7.70;1.95;;;;;;;24.23;71.61;100971.50;6125333;23;20006;-82
2022/07/03 11:23:27;;;;;;;7.00;1.70;;;;;;;24.40;75.94;100966.00;6123901;23;20064;-83
2022/07/03 11:25:59;;;;;;;9.43;2.22;;;;;;;24.53;73.27;100966.25;6124453;23;20009;-82
2022/07/03 11:28:32;;;;;;;4.93;1.50;;;;;;;24.69;72.03;100965.25;6124649;23;20029;-83
2022/07/03 11:31:13;;;;;;;9.07;1.70;;;;;;;24.61;75.12;100970.72;6123525;23;20009;-82
2022/07/03 11:33:42;;;;;;;6.57;1.67;;;;;;;25.33;71.68;100968.22;6123372;23;20423;-83
2022/07/03 11:36:17;;;;;;;12.57;2.00;;;;;;;25.86;69.39;100962.63;6123522;23;20496;-83